Etusivu
METAR-TAF:

METAR-TAF

Lentoasemat :

Lansdowne House, Ontario, Kanada

Leveyspiiri: 52-11-44N, Pituuspiiri: 87-56-03W, korkeus merenpinnasta: 254 m

Tämänhetkinen sää

Tämä raportti tehtiin 21 minuuttia sitten, kello 15.16 UTC
Tuuli 5 kn pohjoisen/luoteesta, vaihdellen luoteen ja pohjoisen/koillisen välillä
Lämpötila -15°C
Kosteus 78%
Ilmanpaine 1029 hPa
Näkyvyys: 11.3 km
Hajonneita pilviä 1700 ft:n korkeudessa
Pilvistä 4500 ft:n korkeudessa
heikkoa lumisadetta

METAR: CYLH 251516Z AUTO 33005KT 310V020 7SM -SN BKN017 OVC045 M15/M18 A3040 RMK SLP322

Aika: 10:37 (15:37 UTC)


TAF: puuttuu

Säähavainnot ja -ennusteet yli 4000 lentoasemalta (METAR- ja TAF-raportit).

Käytössä olevat sääasemat on merkitty karttaan keltaisilla ja punaisilla pisteillä.

Aseta hiiri pisteen päälle nähdäksesi sääaseman nimen.

Klikkaa sitten nähdäksesi säähavainnot ja -ennusteet.

Kartan vaihtaminen: klikkaa mustalla rastilla varustettuja vihreitä pisteitä, niin voit zoomata sisään; viivalla varustettua vihreää pistettä, niin voit zoomata ulos tai vihreitä nuolia, niin pääset viereisille kartoille.


METAR-TAF: